ADDS METAR Data INFO
IDs: Format: Raw Decoded Include TAF

Data at: 0346 UTC 18 Oct 2017

KRUE 180253Z AUTO 00000KT 10SM CLR 10/07 A3021 RMK AO2 SLP225 T01000072 53009
KRUE 180153Z AUTO 00000KT 10SM CLR 11/07 A3019 RMK AO2 SLP221 T01060072
KRUE 180053Z AUTO 00000KT 10SM CLR 13/07 A3018 RMK AO2 SLP218 T01280072
KRUE 172353Z AUTO 07003KT 10SM CLR 14/07 A3018 RMK AO2 SLP216 T01440072 10217 20144 56009
KRUE 172253Z AUTO 00000KT 10SM CLR 20/06 A3018 RMK AO2 SLP215 T02000061
KRUE 172153Z AUTO 14003KT 10SM CLR 21/05 A3019 RMK AO2 SLP218 T02110050
KRUE 172053Z AUTO VRB03KT 10SM CLR 21/03 A3020 RMK AO2 SLP224 T02110033 56037
KRUE 171953Z AUTO 00000KT 10SM CLR 20/04 A3023 RMK AO2 SLP233 T02000039
KRUE 171853Z AUTO VRB05KT 10SM CLR 19/04 A3027 RMK AO2 SLP245 T01940039
KRUE 171753Z AUTO 07008KT 10SM CLR 19/04 A3032 RMK AO2 SLP261 T01890039 10189 20033 58018
KRUE 171653Z AUTO VRB03KT 10SM CLR 17/06 A3035 RMK AO2 SLP272 T01720056
KRUE 171553Z AUTO 20005KT 10SM CLR 15/06 A3036 RMK AO2 SLP276 T01500061
KRUE 171453Z AUTO 00000KT 10SM CLR 12/09 A3037 RMK AO2 SLP281 T01170089 53012
KRUE 171353Z AUTO 00000KT 10SM CLR 08/07 A3036 RMK AO2 SLP277 T00830072
KRUE 171253Z AUTO 00000KT 10SM CLR 04/03 A3034 RMK AO2 SLP270 T00390033
KRUE 171153Z AUTO 00000KT 10SM CLR 04/04 A3033 RMK AO2 SLP269 T00390039 10067 20039 50009
KRUE 171053Z AUTO 00000KT 10SM CLR 04/04 A3034 RMK AO2 SLP269 T00440039
KRUE 170953Z AUTO 00000KT 10SM CLR 04/04 A3032 RMK AO2 SLP263 T00440044
KRUE 170853Z AUTO 00000KT 10SM CLR 05/05 A3031 RMK AO2 SLP258 T00500050 50000
KRUE 170753Z AUTO 00000KT 10SM CLR 06/06 A3031 RMK AO2 SLP261 T00560056
KRUE 170653Z AUTO 00000KT 10SM CLR 06/06 A3031 RMK AO2 SLP260 T00610056
KRUE 170553Z AUTO 00000KT 10SM CLR 07/06 A3031 RMK AO2 SLP258 T00670061 10144 20067 402220056 58001
KRUE 170453Z AUTO 00000KT 10SM CLR 07/07 A3030 RMK AO2 SLP258 T00720067
KRUE 170353Z AUTO 00000KT 10SM CLR 08/07 A3031 RMK AO2 SLP260 T00830072
KRUE 170253Z AUTO 00000KT 10SM CLR 09/07 A3031 RMK AO2 SLP259 T00890072 51010
KRUE 170153Z AUTO 00000KT 10SM CLR 10/07 A3030 RMK AO2 SLP257 T01000072
KRUE 170053Z AUTO 00000KT 10SM CLR 12/07 A3029 RMK AO2 SLP256 T01170072
KRUE 162353Z AUTO 00000KT 10SM CLR 14/06 A3028 RMK AO2 SLP250 T01440056 10222 20144 55005
KRUE 162253Z AUTO 12004KT 10SM CLR 19/03 A3028 RMK AO2 SLP248 T01940028
KRUE 162153Z AUTO 04006KT 10SM CLR 22/02 A3028 RMK AO2 SLP250 T02170017
KRUE 162053Z AUTO 00000KT 10SM CLR 22/02 A3029 RMK AO2 SLP254 T02170017 56032
KRUE 161953Z AUTO 01006KT 10SM CLR 21/02 A3031 RMK AO2 SLP260 T02110022
KRUE 161853Z AUTO 10SM CLR 20/03 A3034 RMK AO2 SLP271 T02000033
KRUE 161753Z AUTO VRB05KT 10SM CLR 19/05 A3039 RMK AO2 SLP286 T01890050 10189 20061 58012
KRUE 161653Z AUTO VRB04KT 10SM CLR 17/04 A3042 RMK AO2 SLP297 T01720044
KRUE 161553Z AUTO 09006KT 10SM CLR 16/06 A3043 RMK AO2 SLP299 T01610056